createdAt,value
2018-09-22T00:02:20.316Z,12.90
2018-09-22T00:04:48.756Z,12.90
2018-09-22T00:07:17.186Z,12.90
2018-09-22T00:09:45.587Z,12.90
2018-09-22T00:12:14.040Z,12.80
2018-09-22T00:14:42.476Z,12.80
2018-09-22T00:17:11.034Z,12.80
2018-09-22T00:19:39.974Z,12.80
2018-09-22T00:22:08.408Z,12.70
2018-09-22T00:24:37.483Z,12.80
2018-09-22T00:27:05.936Z,12.80
2018-09-22T00:29:34.366Z,12.90
2018-09-22T00:32:02.836Z,12.80
2018-09-22T00:34:31.236Z,12.90
2018-09-22T00:36:59.670Z,12.90
2018-09-22T00:39:28.097Z,12.90
2018-09-22T00:41:56.547Z,12.90
2018-09-22T00:44:25.003Z,12.90
2018-09-22T00:46:53.475Z,12.90
2018-09-22T00:49:21.900Z,12.90
2018-09-22T00:51:50.338Z,12.80
2018-09-22T00:54:18.777Z,12.80
2018-09-22T00:56:47.197Z,12.80
2018-09-22T00:59:15.607Z,12.70
2018-09-22T01:01:44.027Z,12.80
2018-09-22T01:04:12.437Z,12.80
2018-09-22T01:06:40.853Z,12.70
2018-09-22T01:09:09.531Z,12.70
2018-09-22T01:11:38.478Z,12.70
2018-09-22T01:14:07.642Z,12.70
2018-09-22T01:16:37.005Z,12.70
2018-09-22T01:19:05.615Z,12.60
2018-09-22T01:21:34.044Z,12.60
2018-09-22T01:24:02.469Z,12.60
2018-09-22T01:26:30.881Z,12.70
2018-09-22T01:28:59.333Z,12.70
2018-09-22T01:31:27.851Z,12.60
2018-09-22T01:33:56.461Z,12.70
2018-09-22T01:36:24.892Z,12.70
2018-09-22T01:38:53.351Z,12.60
2018-09-22T01:41:21.831Z,12.60
2018-09-22T01:43:50.259Z,12.60
2018-09-22T01:46:18.689Z,12.60
2018-09-22T01:48:47.102Z,12.60
2018-09-22T01:51:15.521Z,12.50
2018-09-22T01:53:43.939Z,12.60
2018-09-22T01:56:12.447Z,12.50
2018-09-22T01:58:40.919Z,12.50
2018-09-22T02:01:09.834Z,12.50
2018-09-22T02:03:38.280Z,12.40
2018-09-22T02:06:06.983Z,12.40
2018-09-22T02:08:35.434Z,12.40
2018-09-22T02:11:03.852Z,12.50
2018-09-22T02:13:32.321Z,12.40
2018-09-22T02:16:00.755Z,12.40
2018-09-22T02:18:29.278Z,12.40
2018-09-22T02:20:57.862Z,12.40
2018-09-22T02:23:26.327Z,12.30
2018-09-22T02:25:54.845Z,12.30
2018-09-22T02:28:23.317Z,12.40
2018-09-22T02:30:51.770Z,12.40
2018-09-22T02:33:20.375Z,12.40
2018-09-22T02:35:48.796Z,12.40
2018-09-22T02:38:17.205Z,12.40
2018-09-22T02:40:45.604Z,12.30
2018-09-22T02:43:14.313Z,12.30
2018-09-22T02:45:42.757Z,12.20
2018-09-22T02:48:11.200Z,12.30
2018-09-22T02:50:39.612Z,12.30
2018-09-22T02:53:08.000Z,12.30
2018-09-22T02:55:36.438Z,12.20
2018-09-22T02:58:04.924Z,12.20
2018-09-22T03:00:33.456Z,12.20
2018-09-22T03:03:01.878Z,12.20
2018-09-22T03:05:30.373Z,12.20
2018-09-22T03:07:58.814Z,12.10
2018-09-22T03:10:27.244Z,12.10
2018-09-22T03:12:55.668Z,12.10
2018-09-22T03:15:30.644Z,12.10
2018-09-22T03:17:59.070Z,12.00
2018-09-22T03:20:27.528Z,12.00
2018-09-22T03:22:55.938Z,12.10
2018-09-22T03:25:24.482Z,12.00
2018-09-22T03:27:52.886Z,12.00
2018-09-22T03:30:21.304Z,12.00
2018-09-22T03:32:49.947Z,12.00
2018-09-22T03:35:18.356Z,12.00
2018-09-22T03:37:46.807Z,12.00
2018-09-22T03:40:15.375Z,11.90
2018-09-22T03:42:43.794Z,11.90
2018-09-22T03:45:12.210Z,11.90
2018-09-22T03:47:40.646Z,11.90
2018-09-22T03:50:09.117Z,11.90
2018-09-22T03:52:37.556Z,11.90
2018-09-22T03:55:06.014Z,11.90
2018-09-22T03:57:34.447Z,11.90
2018-09-22T04:00:03.023Z,11.90
2018-09-22T04:02:31.539Z,11.90
2018-09-22T04:05:00.091Z,11.80
2018-09-22T04:07:28.547Z,11.80
2018-09-22T04:09:57.014Z,11.80
2018-09-22T04:12:25.657Z,11.80
2018-09-22T04:14:54.071Z,11.80
2018-09-22T04:17:22.585Z,11.70
2018-09-22T04:19:51.003Z,11.70
2018-09-22T04:22:19.521Z,11.70
2018-09-22T04:24:47.952Z,11.70
2018-09-22T04:27:16.440Z,11.70
2018-09-22T04:29:44.852Z,11.70
2018-09-22T04:32:13.274Z,11.70
2018-09-22T04:34:41.678Z,11.60
2018-09-22T04:37:10.102Z,11.70
2018-09-22T04:39:38.505Z,11.70
2018-09-22T04:42:07.319Z,11.80
2018-09-22T04:44:35.747Z,11.80
2018-09-22T04:47:04.191Z,11.80
2018-09-22T04:49:32.619Z,11.80
2018-09-22T04:52:01.050Z,11.80
2018-09-22T04:54:29.601Z,11.80
2018-09-22T04:56:58.021Z,11.70
2018-09-22T04:59:26.439Z,11.80
2018-09-22T05:01:54.864Z,11.70
2018-09-22T05:04:23.281Z,11.70
2018-09-22T05:06:51.696Z,11.70
2018-09-22T05:09:20.168Z,11.70
2018-09-22T05:11:48.595Z,11.70
2018-09-22T05:14:17.062Z,11.70
2018-09-22T05:16:45.546Z,11.70
2018-09-22T05:19:14.014Z,11.60
2018-09-22T05:21:42.418Z,11.60
2018-09-22T05:24:10.907Z,11.60
2018-09-22T05:26:39.320Z,11.50
2018-09-22T05:29:07.767Z,11.50
2018-09-22T05:31:36.228Z,11.50
2018-09-22T05:34:04.656Z,11.60
2018-09-22T05:36:33.084Z,11.60
2018-09-22T05:39:01.584Z,11.60
2018-09-22T05:41:30.017Z,11.60
2018-09-22T05:43:58.438Z,11.60
2018-09-22T05:46:26.867Z,11.60
2018-09-22T05:48:55.294Z,11.70
2018-09-22T05:51:23.713Z,11.70
2018-09-22T05:53:52.151Z,11.80
2018-09-22T05:56:20.589Z,11.80
2018-09-22T05:58:49.097Z,11.70
2018-09-22T06:01:18.498Z,11.70
2018-09-22T06:03:46.936Z,11.80
2018-09-22T06:06:15.349Z,11.80
2018-09-22T06:08:43.732Z,11.90
2018-09-22T06:11:12.230Z,12.00
2018-09-22T06:13:40.640Z,12.10
2018-09-22T06:16:09.312Z,12.10
2018-09-22T06:18:38.134Z,12.10
2018-09-22T06:21:06.574Z,12.20
2018-09-22T06:23:35.027Z,12.20
2018-09-22T06:26:03.561Z,12.20
2018-09-22T06:28:32.130Z,12.20
2018-09-22T06:31:00.587Z,12.20
2018-09-22T06:33:28.988Z,12.10
2018-09-22T06:35:57.409Z,12.00
2018-09-22T06:38:25.830Z,12.10
2018-09-22T06:40:54.744Z,12.20
2018-09-22T06:43:23.156Z,12.20
2018-09-22T06:45:51.594Z,12.30
2018-09-22T06:48:20.027Z,12.40
2018-09-22T06:50:48.470Z,12.40
2018-09-22T06:53:16.905Z,12.50
2018-09-22T06:55:45.331Z,12.70
2018-09-22T06:58:14.004Z,12.90
2018-09-22T07:00:42.425Z,13.10
2018-09-22T07:03:10.842Z,13.20
2018-09-22T07:05:39.887Z,13.20
2018-09-22T07:08:08.549Z,13.40
2018-09-22T07:10:37.012Z,13.60
2018-09-22T07:13:05.475Z,13.70
2018-09-22T07:15:33.901Z,13.60
2018-09-22T07:18:02.484Z,13.60
2018-09-22T07:20:30.915Z,13.60
2018-09-22T07:23:15.463Z,13.70
2018-09-22T07:25:43.887Z,13.90
2018-09-22T07:28:12.325Z,14.00
2018-09-22T07:30:40.936Z,13.90
2018-09-22T07:33:09.365Z,14.10
2018-09-22T07:35:37.813Z,14.00
2018-09-22T07:38:06.435Z,14.00
2018-09-22T07:40:34.870Z,13.80
2018-09-22T07:43:03.323Z,13.90
2018-09-22T07:45:31.808Z,13.90
2018-09-22T07:48:00.272Z,13.80
2018-09-22T07:50:28.684Z,13.90
2018-09-22T07:52:57.128Z,14.00
2018-09-22T07:55:25.541Z,14.20
2018-09-22T07:57:53.964Z,14.50
2018-09-22T08:00:22.401Z,14.70
2018-09-22T08:02:50.812Z,15.00
2018-09-22T08:05:19.288Z,15.40
2018-09-22T08:07:47.822Z,15.50
2018-09-22T08:10:16.276Z,15.70
2018-09-22T08:12:44.658Z,15.70
2018-09-22T08:15:13.122Z,15.40
2018-09-22T08:17:41.736Z,15.40
2018-09-22T08:20:10.206Z,15.30
2018-09-22T08:22:38.638Z,15.60
2018-09-22T08:25:07.190Z,15.50
2018-09-22T08:27:35.582Z,15.80
2018-09-22T08:30:04.128Z,16.40
2018-09-22T08:32:32.564Z,17.10
2018-09-22T08:35:00.961Z,18.30
2018-09-22T08:37:29.438Z,19.50
2018-09-22T08:39:57.876Z,20.20
2018-09-22T08:42:26.314Z,20.40
2018-09-22T08:44:54.766Z,19.60
2018-09-22T08:47:23.220Z,18.90
2018-09-22T08:49:51.701Z,18.70
2018-09-22T08:52:20.110Z,17.90
2018-09-22T08:54:48.572Z,17.70
2018-09-22T08:57:17.115Z,17.80
2018-09-22T08:59:45.679Z,18.20
2018-09-22T09:02:14.139Z,17.90
2018-09-22T09:04:43.083Z,17.80
2018-09-22T09:07:11.701Z,17.80
2018-09-22T09:09:40.592Z,17.90
2018-09-22T09:12:09.027Z,18.10
2018-09-22T09:14:37.535Z,18.40
2018-09-22T09:17:06.021Z,18.50
2018-09-22T09:19:34.442Z,19.00
2018-09-22T09:22:02.879Z,20.10
2018-09-22T09:24:31.325Z,21.60
2018-09-22T09:26:59.751Z,22.50
2018-09-22T09:29:28.211Z,22.80
2018-09-22T09:31:56.679Z,22.30
2018-09-22T09:34:25.129Z,21.80
2018-09-22T09:36:53.639Z,22.50
2018-09-22T09:39:22.104Z,23.60
2018-09-22T09:41:50.545Z,23.80
2018-09-22T09:44:19.005Z,24.40
2018-09-22T09:46:47.453Z,25.50
2018-09-22T09:49:15.924Z,26.70
2018-09-22T09:51:44.370Z,27.10
2018-09-22T09:54:12.859Z,26.80
2018-09-22T09:56:41.318Z,27.20
2018-09-22T09:59:09.994Z,27.10
2018-09-22T10:01:38.487Z,28.00
2018-09-22T10:04:06.960Z,27.00
2018-09-22T10:06:35.431Z,25.70
2018-09-22T10:09:05.210Z,24.10
2018-09-22T10:11:33.656Z,22.80
2018-09-22T10:14:02.109Z,21.70
2018-09-22T10:16:30.563Z,21.00
2018-09-22T10:18:59.045Z,20.40
2018-09-22T10:21:27.508Z,20.60
2018-09-22T10:23:55.943Z,21.20
2018-09-22T10:26:24.459Z,22.20
2018-09-22T10:28:52.956Z,23.10
2018-09-22T10:31:21.361Z,23.00
2018-09-22T10:33:49.801Z,22.20
2018-09-22T10:36:18.615Z,21.20
2018-09-22T10:38:47.190Z,20.50
2018-09-22T10:41:15.607Z,19.70
2018-09-22T10:43:44.064Z,19.00
2018-09-22T10:46:12.488Z,17.60
2018-09-22T10:48:40.900Z,16.90
2018-09-22T10:51:09.360Z,17.10
2018-09-22T10:53:37.842Z,16.90
2018-09-22T10:56:06.308Z,16.70
2018-09-22T10:58:34.728Z,16.80
2018-09-22T11:01:09.697Z,16.90
2018-09-22T11:03:38.158Z,16.90
2018-09-22T11:06:07.238Z,17.00
2018-09-22T11:08:35.676Z,17.30
2018-09-22T11:11:04.164Z,17.40
2018-09-22T11:13:32.596Z,17.40
2018-09-22T11:16:01.034Z,17.60
2018-09-22T11:18:29.460Z,17.90
2018-09-22T11:20:57.899Z,18.20
2018-09-22T11:23:26.340Z,18.60
2018-09-22T11:25:54.791Z,19.10
2018-09-22T11:28:23.238Z,18.60
2018-09-22T11:30:51.763Z,18.40
2018-09-22T11:33:20.197Z,18.30
2018-09-22T11:35:48.664Z,18.20
2018-09-22T11:38:17.202Z,18.20
2018-09-22T11:40:45.578Z,18.60
2018-09-22T11:43:14.012Z,19.10
2018-09-22T11:45:42.478Z,19.10
2018-09-22T11:48:10.915Z,19.40
2018-09-22T11:50:39.360Z,19.70
2018-09-22T11:53:07.782Z,19.50
2018-09-22T11:55:36.208Z,19.10
2018-09-22T11:58:04.645Z,19.20
2018-09-22T12:00:33.123Z,18.70
2018-09-22T12:03:01.560Z,18.90
2018-09-22T12:05:30.019Z,18.80
2018-09-22T12:07:58.455Z,18.40
2018-09-22T12:10:26.942Z,18.40
2018-09-22T12:12:55.402Z,18.30
2018-09-22T12:15:23.837Z,17.90
2018-09-22T12:17:52.255Z,17.50
2018-09-22T12:20:20.711Z,17.40
2018-09-22T12:22:49.157Z,17.50
2018-09-22T12:25:17.597Z,17.50
2018-09-22T12:27:46.064Z,17.50
2018-09-22T12:30:14.596Z,17.30
2018-09-22T12:32:43.039Z,17.00
2018-09-22T12:35:11.457Z,16.90
2018-09-22T12:37:39.930Z,16.90
2018-09-22T12:40:08.387Z,16.70
2018-09-22T12:42:36.831Z,16.80
2018-09-22T12:45:05.334Z,16.90
2018-09-22T12:47:33.751Z,16.80
2018-09-22T12:50:02.222Z,16.70
2018-09-22T12:52:30.676Z,16.70
2018-09-22T12:54:59.111Z,16.50
2018-09-22T12:57:27.607Z,16.50
2018-09-22T12:59:56.052Z,16.40
2018-09-22T13:02:24.501Z,16.30
2018-09-22T13:04:52.986Z,16.30
2018-09-22T13:07:21.443Z,16.10
2018-09-22T13:09:49.872Z,15.90
2018-09-22T13:12:18.304Z,16.00
2018-09-22T13:14:46.739Z,15.90
2018-09-22T13:17:16.005Z,16.00
2018-09-22T13:19:44.456Z,16.10
2018-09-22T13:22:12.939Z,16.10
2018-09-22T13:24:41.353Z,16.40
2018-09-22T13:27:09.868Z,16.30
2018-09-22T13:29:38.321Z,16.40
2018-09-22T13:32:06.835Z,16.20
2018-09-22T13:34:35.284Z,16.00
2018-09-22T13:37:03.750Z,15.90
2018-09-22T13:39:32.223Z,15.60
2018-09-22T13:42:00.745Z,15.40
2018-09-22T13:44:29.192Z,15.40
2018-09-22T13:46:57.620Z,15.20
2018-09-22T13:49:26.056Z,15.00
2018-09-22T13:51:54.493Z,14.70
2018-09-22T13:54:22.936Z,14.60
2018-09-22T13:56:51.428Z,14.60
2018-09-22T13:59:19.868Z,14.60
2018-09-22T14:01:48.351Z,14.70
2018-09-22T14:04:16.852Z,14.80
2018-09-22T14:06:45.544Z,14.90
2018-09-22T14:09:14.011Z,15.10
2018-09-22T14:11:42.751Z,15.30
2018-09-22T14:14:11.326Z,15.70
2018-09-22T14:16:39.834Z,16.00
2018-09-22T14:19:08.331Z,16.20
2018-09-22T14:21:36.778Z,16.40
2018-09-22T14:24:05.308Z,16.40
2018-09-22T14:26:33.794Z,16.20
2018-09-22T14:29:02.268Z,16.10
2018-09-22T14:31:30.722Z,16.10
2018-09-22T14:33:59.352Z,16.20
2018-09-22T14:36:27.788Z,16.10
2018-09-22T14:38:56.220Z,16.10
2018-09-22T14:41:24.734Z,15.90
2018-09-22T14:43:53.224Z,15.60
2018-09-22T14:46:21.758Z,15.50
2018-09-22T14:48:50.217Z,15.40
2018-09-22T14:51:18.685Z,15.20
2018-09-22T14:53:47.118Z,15.10
2018-09-22T14:56:15.577Z,15.10
2018-09-22T14:58:44.000Z,15.20
2018-09-22T15:01:12.473Z,15.10
2018-09-22T15:03:40.897Z,15.10
2018-09-22T15:06:09.343Z,15.00
2018-09-22T15:08:37.780Z,15.00
2018-09-22T15:11:06.288Z,15.10
2018-09-22T15:13:34.723Z,15.00
2018-09-22T15:16:03.200Z,15.10
2018-09-22T15:18:31.675Z,15.10
2018-09-22T15:21:00.125Z,15.00
2018-09-22T15:23:28.602Z,14.80
2018-09-22T15:25:57.019Z,14.60
2018-09-22T15:28:25.453Z,14.50
2018-09-22T15:30:53.999Z,14.40
2018-09-22T15:33:22.431Z,14.40
2018-09-22T15:35:50.854Z,14.40
2018-09-22T15:38:19.295Z,14.30
2018-09-22T15:40:47.718Z,14.20
2018-09-22T15:43:16.151Z,14.20
2018-09-22T15:45:44.572Z,14.20
2018-09-22T15:48:13.103Z,14.20
2018-09-22T15:50:41.468Z,14.10
2018-09-22T15:53:09.943Z,14.10
2018-09-22T15:55:38.381Z,14.10
2018-09-22T15:58:06.849Z,14.00
2018-09-22T16:00:35.361Z,13.90
2018-09-22T16:03:03.825Z,13.90
2018-09-22T16:05:32.278Z,13.90
2018-09-22T16:08:00.735Z,14.00
2018-09-22T16:10:29.179Z,13.90
2018-09-22T16:12:57.589Z,13.90
2018-09-22T16:15:26.091Z,13.70
2018-09-22T16:17:54.480Z,13.70
2018-09-22T16:20:22.928Z,13.70
2018-09-22T16:22:51.337Z,13.60
2018-09-22T16:25:19.767Z,13.60
2018-09-22T16:27:48.173Z,13.60
2018-09-22T16:30:16.640Z,13.50
2018-09-22T16:32:45.110Z,13.40
2018-09-22T16:35:13.552Z,13.50
2018-09-22T16:37:41.977Z,13.50
2018-09-22T16:40:10.432Z,13.50
2018-09-22T16:42:38.885Z,13.40
2018-09-22T16:45:07.302Z,13.30
2018-09-22T16:47:35.721Z,13.30
2018-09-22T16:50:04.243Z,13.40
2018-09-22T16:52:32.635Z,13.40
2018-09-22T16:55:01.060Z,13.40
2018-09-22T16:57:29.495Z,13.50
2018-09-22T16:59:57.947Z,13.50
2018-09-22T17:02:26.397Z,13.50
2018-09-22T17:04:54.863Z,13.40
2018-09-22T17:07:23.320Z,13.40
2018-09-22T17:09:51.762Z,13.20
2018-09-22T17:12:20.189Z,13.30
2018-09-22T17:14:48.605Z,13.30
2018-09-22T17:17:17.012Z,13.30
2018-09-22T17:19:45.445Z,13.20
2018-09-22T17:22:13.920Z,13.30
2018-09-22T17:24:42.342Z,13.20
2018-09-22T17:27:10.780Z,13.30
2018-09-22T17:29:39.198Z,13.30
2018-09-22T17:32:07.644Z,13.20
2018-09-22T17:34:36.074Z,13.20
2018-09-22T17:37:04.539Z,13.20
2018-09-22T17:39:32.976Z,13.20
2018-09-22T17:42:01.441Z,13.10
2018-09-22T17:44:29.885Z,13.10
2018-09-22T17:46:58.383Z,13.10
2018-09-22T17:49:26.818Z,13.10
2018-09-22T17:51:55.268Z,13.10
2018-09-22T17:54:23.723Z,13.00
2018-09-22T17:56:52.165Z,13.10
2018-09-22T17:59:20.630Z,13.10
2018-09-22T18:01:49.083Z,13.00
2018-09-22T18:04:17.542Z,13.00
2018-09-22T18:06:45.984Z,13.10
2018-09-22T18:09:14.399Z,13.10
2018-09-22T18:11:42.836Z,13.20
2018-09-22T18:14:11.329Z,13.10
2018-09-22T18:16:39.788Z,13.10
2018-09-22T18:19:08.248Z,13.20
2018-09-22T18:21:36.715Z,13.10
2018-09-22T18:24:05.185Z,13.10
2018-09-22T18:26:33.623Z,13.10
2018-09-22T18:29:02.047Z,13.00
2018-09-22T18:31:30.569Z,13.00
2018-09-22T18:33:59.059Z,13.00
2018-09-22T18:36:27.475Z,13.10
2018-09-22T18:38:57.227Z,13.10
2018-09-22T18:41:25.765Z,13.10
2018-09-22T18:43:54.204Z,13.00
2018-09-22T18:46:22.681Z,13.00
2018-09-22T18:48:51.092Z,13.00
2018-09-22T18:51:19.511Z,13.00
2018-09-22T18:53:47.951Z,13.00
2018-09-22T18:56:16.401Z,13.00
2018-09-22T18:58:44.873Z,12.90
2018-09-22T19:01:13.347Z,12.80
2018-09-22T19:03:41.803Z,12.80
2018-09-22T19:06:10.222Z,12.80
2018-09-22T19:08:38.663Z,12.70
2018-09-22T19:11:07.134Z,12.70
2018-09-22T19:13:40.163Z,12.80
2018-09-22T19:16:17.836Z,12.90
2018-09-22T19:18:53.317Z,12.80
2018-09-22T19:22:00.212Z,12.80
2018-09-22T19:24:45.955Z,12.80
2018-09-22T19:27:21.684Z,12.80
2018-09-22T19:29:55.961Z,12.80
2018-09-22T19:32:30.148Z,12.80
2018-09-22T19:35:03.870Z,12.80
2018-09-22T19:37:39.032Z,12.80
2018-09-22T19:40:18.367Z,12.80
2018-09-22T19:42:51.599Z,12.80
2018-09-22T19:45:30.535Z,12.70
2018-09-22T19:48:03.722Z,12.60
2018-09-22T19:50:37.122Z,12.70
2018-09-22T19:53:05.574Z,12.70
2018-09-22T19:55:34.000Z,12.70
2018-09-22T19:58:02.439Z,12.60
2018-09-22T20:00:30.855Z,12.70
2018-09-22T20:02:59.276Z,12.60
2018-09-22T20:05:27.716Z,12.60
2018-09-22T20:07:56.198Z,12.60
2018-09-22T20:10:24.630Z,12.60
2018-09-22T20:12:53.036Z,12.70
2018-09-22T20:15:21.462Z,12.60
2018-09-22T20:17:49.910Z,12.50
2018-09-22T20:20:18.336Z,12.60
2018-09-22T20:22:46.764Z,12.50
2018-09-22T20:25:15.184Z,12.60
2018-09-22T20:27:43.624Z,12.60
2018-09-22T20:30:12.108Z,12.60
2018-09-22T20:32:40.541Z,12.60
2018-09-22T20:35:09.017Z,12.60
2018-09-22T20:37:37.638Z,12.70
2018-09-22T20:40:06.110Z,12.70
2018-09-22T20:42:34.532Z,12.60
2018-09-22T20:45:02.990Z,12.50
2018-09-22T20:47:31.411Z,12.50
2018-09-22T20:49:59.865Z,12.60
2018-09-22T20:52:28.326Z,12.60
2018-09-22T20:54:56.814Z,12.60
2018-09-22T20:57:25.260Z,12.60
2018-09-22T20:59:53.714Z,12.60
2018-09-22T21:02:22.226Z,12.70
2018-09-22T21:04:50.676Z,12.60
2018-09-22T21:07:19.132Z,12.60
2018-09-22T21:09:47.607Z,12.60
2018-09-22T21:12:16.024Z,12.50
2018-09-22T21:14:44.473Z,12.50
2018-09-22T21:17:12.903Z,12.50
2018-09-22T21:19:41.459Z,12.40
2018-09-22T21:22:09.991Z,12.40
2018-09-22T21:24:38.473Z,12.50
2018-09-22T21:27:06.879Z,12.50
2018-09-22T21:29:35.344Z,12.50
2018-09-22T21:32:03.796Z,12.50
2018-09-22T21:34:32.228Z,12.60
2018-09-22T21:37:00.652Z,12.60
2018-09-22T21:39:29.428Z,12.60
2018-09-22T21:41:57.879Z,12.60
2018-09-22T21:44:26.324Z,12.50
2018-09-22T21:46:54.768Z,12.50
2018-09-22T21:49:23.215Z,12.60
2018-09-22T21:51:51.704Z,12.60
2018-09-22T21:54:20.123Z,12.60
2018-09-22T21:56:48.582Z,12.60
2018-09-22T21:59:17.075Z,12.60
2018-09-22T22:01:45.525Z,12.70
2018-09-22T22:04:13.972Z,12.70
2018-09-22T22:06:42.429Z,12.70
2018-09-22T22:09:12.235Z,12.70
2018-09-22T22:11:41.025Z,12.70
2018-09-22T22:14:10.064Z,12.60
2018-09-22T22:16:39.059Z,12.60
2018-09-22T22:19:07.951Z,12.60
2018-09-22T22:21:36.387Z,12.60
2018-09-22T22:24:05.008Z,12.60
2018-09-22T22:26:33.436Z,12.60
2018-09-22T22:29:01.863Z,12.60
2018-09-22T22:31:30.293Z,12.60
2018-09-22T22:33:58.773Z,12.60
2018-09-22T22:36:27.219Z,12.60
2018-09-22T22:38:55.632Z,12.50
2018-09-22T22:41:24.084Z,12.50
2018-09-22T22:43:52.529Z,12.60
2018-09-22T22:46:20.969Z,12.50
2018-09-22T22:48:49.571Z,12.50
2018-09-22T22:51:18.112Z,12.40
2018-09-22T22:53:46.623Z,12.40
2018-09-22T22:56:15.247Z,12.40
2018-09-22T22:58:43.775Z,12.40
2018-09-22T23:01:12.229Z,12.40
2018-09-22T23:03:40.652Z,12.40
2018-09-22T23:06:09.201Z,12.40
2018-09-22T23:08:37.688Z,12.40
2018-09-22T23:11:06.293Z,12.50
2018-09-22T23:13:34.797Z,12.40
2018-09-22T23:16:03.702Z,12.30
2018-09-22T23:18:33.959Z,12.40
2018-09-22T23:21:02.592Z,12.40
2018-09-22T23:23:30.995Z,12.40
2018-09-22T23:25:59.515Z,12.40
2018-09-22T23:28:27.999Z,12.40
2018-09-22T23:30:56.521Z,12.30
2018-09-22T23:33:24.967Z,12.30
2018-09-22T23:35:53.438Z,12.40
2018-09-22T23:38:21.908Z,12.40
2018-09-22T23:40:50.502Z,12.40
2018-09-22T23:43:18.952Z,12.40
2018-09-22T23:45:47.404Z,12.40
2018-09-22T23:48:15.910Z,12.30
2018-09-22T23:50:44.444Z,12.40
2018-09-22T23:53:12.932Z,12.30
2018-09-22T23:55:41.394Z,12.40
2018-09-22T23:58:09.917Z,12.50
